Time;durP1;ratioP1;P1;durP2;ratioP2;P2;SDS_P1;SDS_P2;PMS_P1;PMS_P2;Temp;Humidity;BMP_temperature;BMP_pressure;BME280_temperature;BME280_humidity;BME280_pressure;Samples;Min_cycle;Max_cycle;Signal;HPM_P1;HPM_P2
2021/05/08 00:02:10;;;;;;;6.28;2.03;;;;;;;;;;5132103;27;20061;-69
2021/05/08 00:04:36;;;;;;;4.03;1.92;;;;;;;;;;5127969;27;20120;-69
2021/05/08 00:07:02;;;;;;;4.07;2.20;;;;;;;;;;5125582;27;20047;-69
2021/05/08 00:09:28;;;;;;;4.18;2.25;;;;;;;;;;5133587;27;20051;-69
2021/05/08 00:11:55;;;;;;;4.05;1.95;;;;;;;;;;5133121;27;20046;-69
2021/05/08 00:14:22;;;;;;;6.85;3.47;;;;;;;;;;5134203;27;20051;-69
2021/05/08 00:16:48;;;;;;;2.55;1.85;;;;;;;;;;5133905;27;20391;-68
2021/05/08 00:19:15;;;;;;;4.25;2.00;;;;;;;;;;5133050;27;20453;-68
2021/05/08 00:21:41;;;;;;;3.80;2.42;;;;;;;;;;5132813;27;20513;-69
2021/05/08 00:24:08;;;;;;;3.40;2.10;;;;;;;;;;5133551;27;20054;-69
2021/05/08 00:26:34;;;;;;;4.93;2.45;;;;;;;;;;5133344;27;20051;-69
2021/05/08 00:29:00;;;;;;;7.00;2.78;;;;;;;;;;5133128;27;20766;-68
2021/05/08 00:31:27;;;;;;;3.78;2.10;;;;;;;;;;5132536;27;20134;-69
2021/05/08 00:33:53;;;;;;;5.97;2.30;;;;;;;;;;5133276;27;20043;-69
2021/05/08 00:36:20;;;;;;;4.93;1.60;;;;;;;;;;5133690;27;20556;-69
2021/05/08 00:38:46;;;;;;;3.33;2.08;;;;;;;;;;5133818;27;20051;-69
2021/05/08 00:41:11;;;;;;;4.18;2.15;;;;;;;;;;5131882;27;20116;-69
2021/05/08 00:43:37;;;;;;;3.53;2.10;;;;;;;;;;5133510;28;20073;-69
2021/05/08 00:46:04;;;;;;;3.10;1.88;;;;;;;;;;5133040;28;20477;-69
2021/05/08 00:48:31;;;;;;;4.93;2.40;;;;;;;;;;5133245;28;20133;-69
2021/05/08 00:50:57;;;;;;;3.58;1.80;;;;;;;;;;5132511;28;20100;-69
2021/05/08 00:53:24;;;;;;;4.22;2.03;;;;;;;;;;5133332;28;20483;-69
2021/05/08 00:55:51;;;;;;;3.60;2.13;;;;;;;;;;5133037;28;20043;-69
2021/05/08 00:58:17;;;;;;;4.03;2.20;;;;;;;;;;5133193;28;20043;-69
2021/05/08 01:00:43;;;;;;;3.90;2.20;;;;;;;;;;5133203;28;20054;-68
2021/05/08 01:03:09;;;;;;;4.30;2.17;;;;;;;;;;5132320;28;20047;-68
2021/05/08 01:05:36;;;;;;;3.40;2.13;;;;;;;;;;5127829;28;20054;-69
2021/05/08 01:08:03;;;;;;;4.32;2.38;;;;;;;;;;5120030;28;21606;-69
2021/05/08 01:10:30;;;;;;;4.00;2.13;;;;;;;;;;5131320;28;20072;-68
2021/05/08 01:12:58;;;;;;;3.30;2.05;;;;;;;;;;5134715;27;20054;-69
2021/05/08 01:15:24;;;;;;;4.70;2.30;;;;;;;;;;5137141;27;20055;-69
2021/05/08 01:17:50;;;;;;;4.32;2.17;;;;;;;;;;5136410;27;20052;-69
2021/05/08 01:20:16;;;;;;;3.53;1.90;;;;;;;;;;5137147;27;20069;-69
2021/05/08 01:22:44;;;;;;;3.72;1.95;;;;;;;;;;5136161;27;20047;-69
2021/05/08 01:25:12;;;;;;;8.38;2.80;;;;;;;;;;5116161;28;20058;-68
2021/05/08 01:27:46;;;;;;;3.45;1.90;;;;;;;;;;5116416;28;20062;-69
2021/05/08 01:30:13;;;;;;;4.63;2.58;;;;;;;;;;5124082;27;20129;-69
2021/05/08 01:32:39;;;;;;;4.68;2.70;;;;;;;;;;5135908;27;20054;-68
2021/05/08 01:35:05;;;;;;;6.65;3.00;;;;;;;;;;5136590;27;20411;-69
2021/05/08 01:37:31;;;;;;;3.72;2.38;;;;;;;;;;5136521;27;20047;-69
2021/05/08 01:39:58;;;;;;;4.68;2.60;;;;;;;;;;5136390;27;20055;-69
2021/05/08 01:42:25;;;;;;;3.92;2.38;;;;;;;;;;5134677;27;20042;-68
2021/05/08 01:44:51;;;;;;;4.40;2.20;;;;;;;;;;5136069;27;20073;-68
2021/05/08 01:50:48;;;;;;;3.53;2.30;;;;;;;;;;5133121;27;20046;-69
2021/05/08 01:59:58;;;;;;;5.40;2.13;;;;;;;;;;5136033;27;20139;-69
2021/05/08 02:02:24;;;;;;;3.15;1.95;;;;;;;;;;5135035;27;20457;-69
2021/05/08 02:04:50;;;;;;;5.82;2.42;;;;;;;;;;5135398;27;20055;-68
2021/05/08 02:07:16;;;;;;;4.93;2.22;;;;;;;;;;5122711;27;20063;-69
2021/05/08 02:09:42;;;;;;;5.35;3.10;;;;;;;;;;5136072;27;20047;-68
2021/05/08 02:12:08;;;;;;;6.88;3.53;;;;;;;;;;5135536;27;20047;-69
2021/05/08 02:14:34;;;;;;;4.57;2.88;;;;;;;;;;5136039;27;20055;-68
2021/05/08 02:17:00;;;;;;;4.47;3.10;;;;;;;;;;5135887;27;20075;-69
2021/05/08 02:19:26;;;;;;;6.72;3.10;;;;;;;;;;5135583;27;20502;-69
2021/05/08 02:21:54;;;;;;;4.88;3.08;;;;;;;;;;5135290;27;20039;-69
2021/05/08 02:24:21;;;;;;;5.78;3.28;;;;;;;;;;5134329;27;20131;-68
2021/05/08 02:26:47;;;;;;;4.47;2.30;;;;;;;;;;5135555;27;20086;-68
2021/05/08 02:29:13;;;;;;;3.70;2.20;;;;;;;;;;5135781;27;20491;-69
2021/05/08 02:31:39;;;;;;;5.85;3.08;;;;;;;;;;5134960;27;20050;-68
2021/05/08 02:34:06;;;;;;;4.20;2.45;;;;;;;;;;5135359;27;20062;-68
2021/05/08 02:36:31;;;;;;;3.88;2.65;;;;;;;;;;5135347;27;20058;-68
2021/05/08 02:38:57;;;;;;;7.72;2.90;;;;;;;;;;5135368;27;20051;-68
2021/05/08 02:41:23;;;;;;;4.40;2.47;;;;;;;;;;5134293;27;20205;-69
2021/05/08 02:43:49;;;;;;;4.75;2.97;;;;;;;;;;5135454;27;20503;-68
2021/05/08 02:46:15;;;;;;;4.53;2.65;;;;;;;;;;5135098;27;20047;-68
2021/05/08 02:48:41;;;;;;;6.38;3.28;;;;;;;;;;5135137;27;20043;-68
2021/05/08 02:51:08;;;;;;;7.85;3.55;;;;;;;;;;5134928;27;20099;-68
2021/05/08 02:53:34;;;;;;;4.88;2.80;;;;;;;;;;5135096;27;20047;-69
2021/05/08 02:56:00;;;;;;;5.22;2.97;;;;;;;;;;5135041;27;20050;-69
2021/05/08 02:58:26;;;;;;;5.70;3.03;;;;;;;;;;5134996;27;20051;-68
2021/05/08 03:00:52;;;;;;;4.95;2.58;;;;;;;;;;5134800;27;20058;-68
2021/05/08 03:03:18;;;;;;;5.20;2.95;;;;;;;;;;5134179;27;20081;-68
2021/05/08 03:05:44;;;;;;;5.43;2.58;;;;;;;;;;5134782;27;20047;-69
2021/05/08 03:08:10;;;;;;;5.28;3.47;;;;;;;;;;5124656;27;20453;-68
2021/05/08 03:10:36;;;;;;;6.82;3.50;;;;;;;;;;5126637;27;20061;-68
2021/05/08 03:13:02;;;;;;;4.95;3.53;;;;;;;;;;5134398;27;20051;-68
2021/05/08 03:15:29;;;;;;;5.30;2.88;;;;;;;;;;5134629;27;20051;-68
2021/05/08 03:17:55;;;;;;;7.47;3.80;;;;;;;;;;5134346;27;20043;-68
2021/05/08 03:20:22;;;;;;;6.22;3.50;;;;;;;;;;5134706;27;20483;-68
2021/05/08 03:22:48;;;;;;;5.43;3.72;;;;;;;;;;5133784;27;20463;-68
2021/05/08 03:25:15;;;;;;;6.57;3.80;;;;;;;;;;5134355;27;20054;-68
2021/05/08 03:27:41;;;;;;;6.28;3.60;;;;;;;;;;5134513;27;20047;-68
2021/05/08 03:30:08;;;;;;;6.60;4.00;;;;;;;;;;5133967;27;20180;-69
2021/05/08 03:32:34;;;;;;;7.07;3.80;;;;;;;;;;5134012;27;20423;-68
2021/05/08 03:35:00;;;;;;;7.30;3.67;;;;;;;;;;5134367;27;20111;-68
2021/05/08 03:37:26;;;;;;;6.13;3.60;;;;;;;;;;5134157;27;20043;-69
2021/05/08 03:39:52;;;;;;;7.18;3.53;;;;;;;;;;5134433;27;20051;-69
2021/05/08 03:42:19;;;;;;;7.78;3.80;;;;;;;;;;5133783;27;20050;-68
2021/05/08 03:44:45;;;;;;;7.07;3.65;;;;;;;;;;5134576;27;20043;-68
2021/05/08 03:47:10;;;;;;;6.90;3.00;;;;;;;;;;5153037;27;20463;-68
2021/05/08 03:49:37;;;;;;;8.85;4.57;;;;;;;;;;5137909;27;20062;-68
2021/05/08 03:52:04;;;;;;;6.55;3.70;;;;;;;;;;5133400;27;20054;-69
2021/05/08 03:54:30;;;;;;;6.55;3.95;;;;;;;;;;5133965;27;20054;-68
2021/05/08 03:56:57;;;;;;;7.20;4.05;;;;;;;;;;5134009;27;20097;-68
2021/05/08 03:59:24;;;;;;;7.57;3.72;;;;;;;;;;5133499;27;20436;-68
2021/05/08 04:01:50;;;;;;;6.15;3.80;;;;;;;;;;5133091;27;20047;-68
2021/05/08 04:04:16;;;;;;;7.10;4.07;;;;;;;;;;5133745;27;20053;-69
2021/05/08 04:06:42;;;;;;;7.65;4.40;;;;;;;;;;5133121;27;20480;-69
2021/05/08 04:09:10;;;;;;;7.03;3.58;;;;;;;;;;5120147;27;20098;-69
2021/05/08 04:11:37;;;;;;;7.20;3.85;;;;;;;;;;5132981;27;20039;-69
2021/05/08 04:14:03;;;;;;;6.00;3.13;;;;;;;;;;5133832;27;20054;-69
2021/05/08 04:16:31;;;;;;;8.73;3.45;;;;;;;;;;5133387;27;20047;-69
2021/05/08 04:18:57;;;;;;;12.68;4.70;;;;;;;;;;5133290;27;20054;-69
2021/05/08 04:21:23;;;;;;;7.20;3.72;;;;;;;;;;5132685;27;20039;-69
2021/05/08 04:23:49;;;;;;;8.27;4.22;;;;;;;;;;5133462;27;20089;-69
2021/05/08 04:26:15;;;;;;;6.45;3.80;;;;;;;;;;5133611;27;20138;-69
2021/05/08 04:28:41;;;;;;;5.22;3.67;;;;;;;;;;5133664;27;20402;-69
2021/05/08 04:31:07;;;;;;;7.80;3.42;;;;;;;;;;5133032;27;20050;-69
2021/05/08 04:33:34;;;;;;;8.25;4.75;;;;;;;;;;5132844;27;20126;-69
2021/05/08 04:36:00;;;;;;;6.50;4.30;;;;;;;;;;5133354;27;20456;-69
2021/05/08 04:38:26;;;;;;;8.95;4.35;;;;;;;;;;5133395;28;20043;-69
2021/05/08 04:40:52;;;;;;;9.05;5.78;;;;;;;;;;5132917;27;20728;-69
2021/05/08 04:43:19;;;;;;;9.75;6.38;;;;;;;;;;5132544;27;20053;-69
2021/05/08 04:45:44;;;;;;;17.67;12.80;;;;;;;;;;5133482;28;20073;-69
2021/05/08 04:48:10;;;;;;;13.27;9.10;;;;;;;;;;5132496;27;20083;-69
2021/05/08 04:50:37;;;;;;;10.15;6.82;;;;;;;;;;5133273;28;20167;-69
2021/05/08 04:53:03;;;;;;;8.88;5.25;;;;;;;;;;5132698;28;20039;-69
2021/05/08 04:55:29;;;;;;;9.50;5.30;;;;;;;;;;5133103;28;20487;-69
2021/05/08 04:57:55;;;;;;;5.72;4.28;;;;;;;;;;5132759;28;20039;-69
2021/05/08 05:00:21;;;;;;;6.90;4.20;;;;;;;;;;5132978;28;20047;-69
2021/05/08 05:02:47;;;;;;;6.90;3.80;;;;;;;;;;5132475;28;20262;-69
2021/05/08 05:05:15;;;;;;;7.00;3.65;;;;;;;;;;5133236;28;20449;-69
2021/05/08 05:07:43;;;;;;;7.00;4.00;;;;;;;;;;5133027;28;20044;-69
2021/05/08 05:10:10;;;;;;;8.43;5.38;;;;;;;;;;5118784;28;20112;-69
2021/05/08 05:12:36;;;;;;;8.52;4.25;;;;;;;;;;5132570;28;20640;-69
2021/05/08 05:15:03;;;;;;;6.75;3.90;;;;;;;;;;5133465;28;20142;-69
2021/05/08 05:17:29;;;;;;;6.80;4.20;;;;;;;;;;5132920;28;20054;-69
2021/05/08 05:19:55;;;;;;;7.47;3.90;;;;;;;;;;5132885;28;20043;-69
2021/05/08 05:22:21;;;;;;;8.30;4.40;;;;;;;;;;5132500;28;20100;-69
2021/05/08 05:24:48;;;;;;;11.27;5.78;;;;;;;;;;5133005;28;20543;-69
2021/05/08 05:27:13;;;;;;;9.18;5.90;;;;;;;;;;5133073;28;20062;-69
2021/05/08 05:29:40;;;;;;;11.93;7.80;;;;;;;;;;5132829;28;20055;-68
2021/05/08 05:32:07;;;;;;;9.70;5.90;;;;;;;;;;5132598;28;20567;-69
2021/05/08 05:34:33;;;;;;;8.60;5.15;;;;;;;;;;5132697;28;20055;-68
2021/05/08 05:36:59;;;;;;;8.48;4.65;;;;;;;;;;5132959;28;20103;-68
2021/05/08 05:39:25;;;;;;;8.75;4.50;;;;;;;;;;5133069;28;20062;-68
2021/05/08 05:41:52;;;;;;;8.30;5.22;;;;;;;;;;5132716;28;20369;-68
2021/05/08 05:44:18;;;;;;;10.45;5.03;;;;;;;;;;5132732;28;20047;-68
2021/05/08 05:46:44;;;;;;;9.77;5.70;;;;;;;;;;5133154;28;20053;-68
2021/05/08 05:49:10;;;;;;;8.85;5.55;;;;;;;;;;5132883;28;20074;-68
2021/05/08 05:51:36;;;;;;;13.40;6.93;;;;;;;;;;5132826;28;20035;-68
2021/05/08 05:54:03;;;;;;;11.43;6.45;;;;;;;;;;5133421;28;20051;-68
2021/05/08 05:56:29;;;;;;;12.32;6.78;;;;;;;;;;5133465;28;20053;-68
2021/05/08 05:58:56;;;;;;;10.98;5.13;;;;;;;;;;5133545;27;20065;-69
2021/05/08 06:01:22;;;;;;;10.02;4.80;;;;;;;;;;5135704;27;20039;-69
2021/05/08 06:03:48;;;;;;;10.10;5.28;;;;;;;;;;5136247;27;20055;-68
2021/05/08 06:06:14;;;;;;;11.95;5.57;;;;;;;;;;5136556;27;20075;-68
2021/05/08 06:08:40;;;;;;;10.27;4.90;;;;;;;;;;5136046;27;20039;-68
2021/05/08 06:11:06;;;;;;;9.93;6.05;;;;;;;;;;5127036;27;20381;-69
2021/05/08 06:13:33;;;;;;;11.85;6.97;;;;;;;;;;5135775;27;20138;-69
2021/05/08 06:16:00;;;;;;;15.52;6.90;;;;;;;;;;5136183;27;20459;-69
2021/05/08 06:18:26;;;;;;;18.27;10.60;;;;;;;;;;5135531;27;20475;-69
2021/05/08 06:20:52;;;;;;;12.93;8.63;;;;;;;;;;5135348;27;20050;-69
2021/05/08 06:23:18;;;;;;;14.93;8.45;;;;;;;;;;5134863;27;20255;-67
2021/05/08 06:25:44;;;;;;;16.20;9.20;;;;;;;;;;5135483;27;20096;-67
2021/05/08 06:28:11;;;;;;;13.80;8.30;;;;;;;;;;5136017;27;20051;-67
2021/05/08 06:30:37;;;;;;;14.23;9.05;;;;;;;;;;5134318;27;20134;-67
2021/05/08 06:33:04;;;;;;;12.32;6.93;;;;;;;;;;5135180;27;20134;-68
2021/05/08 06:35:30;;;;;;;12.23;7.10;;;;;;;;;;5135741;27;20081;-68
2021/05/08 06:37:56;;;;;;;10.95;7.32;;;;;;;;;;5135265;27;20104;-68
2021/05/08 06:40:22;;;;;;;10.82;7.95;;;;;;;;;;5135928;27;20043;-68
2021/05/08 06:42:48;;;;;;;12.10;8.90;;;;;;;;;;5134951;27;20051;-68
2021/05/08 06:45:14;;;;;;;14.05;8.15;;;;;;;;;;5135861;27;20522;-68
2021/05/08 06:47:40;;;;;;;10.70;6.10;;;;;;;;;;5135535;27;20047;-68
2021/05/08 06:50:08;;;;;;;10.25;6.40;;;;;;;;;;5135914;27;20047;-68
2021/05/08 06:52:34;;;;;;;10.75;5.82;;;;;;;;;;5135110;27;20666;-68
2021/05/08 06:55:00;;;;;;;6.13;3.88;;;;;;;;;;5135580;27;20130;-68
2021/05/08 06:57:26;;;;;;;6.85;4.25;;;;;;;;;;5134740;27;20151;-69
2021/05/08 06:59:52;;;;;;;7.57;3.15;;;;;;;;;;5144445;27;20047;-69
2021/05/08 07:02:18;;;;;;;4.75;3.00;;;;;;;;;;5138431;27;20054;-67
2021/05/08 07:04:44;;;;;;;5.40;2.95;;;;;;;;;;5135085;27;20058;-68
2021/05/08 07:07:11;;;;;;;4.97;2.90;;;;;;;;;;5135071;27;20130;-67
2021/05/08 07:09:37;;;;;;;4.60;2.33;;;;;;;;;;5134024;27;20047;-67
2021/05/08 07:12:04;;;;;;;5.45;2.75;;;;;;;;;;5130706;27;20171;-68
2021/05/08 07:14:30;;;;;;;6.57;2.55;;;;;;;;;;5126307;27;20055;-68
2021/05/08 07:16:56;;;;;;;5.18;2.28;;;;;;;;;;5130770;27;20051;-69
2021/05/08 07:19:22;;;;;;;3.65;2.60;;;;;;;;;;5134414;27;20165;-68
2021/05/08 07:21:48;;;;;;;6.65;2.83;;;;;;;;;;5134055;27;20043;-69
2021/05/08 07:24:15;;;;;;;4.90;2.45;;;;;;;;;;5134727;27;20072;-67
2021/05/08 07:26:41;;;;;;;5.30;3.00;;;;;;;;;;5134855;27;20651;-67
2021/05/08 07:29:07;;;;;;;4.90;3.75;;;;;;;;;;5134841;27;20079;-67
2021/05/08 07:31:33;;;;;;;6.03;3.83;;;;;;;;;;5134015;27;20464;-67
2021/05/08 07:33:59;;;;;;;7.75;3.30;;;;;;;;;;5131092;27;20047;-67
2021/05/08 07:36:25;;;;;;;4.55;2.47;;;;;;;;;;5133562;27;20055;-67
2021/05/08 07:38:51;;;;;;;4.68;2.35;;;;;;;;;;5134234;27;20051;-67
2021/05/08 07:41:17;;;;;;;7.07;2.60;;;;;;;;;;5132413;27;20070;-67
2021/05/08 07:43:43;;;;;;;5.55;3.03;;;;;;;;;;5133484;27;20063;-67
2021/05/08 07:46:09;;;;;;;4.43;2.60;;;;;;;;;;5132485;27;20427;-69
2021/05/08 07:48:35;;;;;;;4.25;2.45;;;;;;;;;;5130970;27;20047;-68
2021/05/08 07:51:01;;;;;;;5.10;2.20;;;;;;;;;;5133382;27;20047;-69
2021/05/08 07:53:27;;;;;;;4.43;2.45;;;;;;;;;;5127762;27;20043;-69
2021/05/08 07:55:53;;;;;;;5.13;2.78;;;;;;;;;;5133478;27;20387;-70
2021/05/08 07:58:22;;;;;;;5.32;2.67;;;;;;;;;;5132790;27;20047;-69
2021/05/08 08:00:48;;;;;;;4.70;3.22;;;;;;;;;;5133455;27;20055;-68
2021/05/08 08:03:16;;;;;;;5.10;3.03;;;;;;;;;;5133438;27;20070;-68
2021/05/08 08:05:42;;;;;;;6.45;3.05;;;;;;;;;;5132055;27;20128;-67
2021/05/08 08:08:07;;;;;;;5.57;3.00;;;;;;;;;;5133833;27;20239;-68
2021/05/08 08:10:33;;;;;;;3.83;2.83;;;;;;;;;;5133913;27;20051;-68
2021/05/08 08:12:59;;;;;;;4.63;2.88;;;;;;;;;;5124964;27;20051;-69
2021/05/08 08:15:26;;;;;;;4.45;2.65;;;;;;;;;;5132580;27;20051;-68
2021/05/08 08:17:52;;;;;;;3.70;2.60;;;;;;;;;;5133391;27;20149;-69
2021/05/08 08:20:18;;;;;;;4.57;2.50;;;;;;;;;;5133721;27;20087;-68
2021/05/08 08:22:45;;;;;;;4.80;2.75;;;;;;;;;;5131260;27;20134;-69
2021/05/08 08:25:12;;;;;;;4.55;2.58;;;;;;;;;;5133172;27;20047;-69
2021/05/08 08:27:39;;;;;;;4.10;2.45;;;;;;;;;;5132962;27;20403;-68
2021/05/08 08:30:06;;;;;;;14.18;2.92;;;;;;;;;;5132779;27;20053;-68
2021/05/08 08:32:33;;;;;;;5.00;2.20;;;;;;;;;;5132413;27;20096;-68
2021/05/08 08:34:59;;;;;;;5.70;2.20;;;;;;;;;;5133569;27;20051;-68
2021/05/08 08:37:25;;;;;;;3.45;2.03;;;;;;;;;;5133649;27;20062;-67
2021/05/08 08:39:51;;;;;;;6.80;2.25;;;;;;;;;;5132936;27;20496;-68
2021/05/08 08:42:18;;;;;;;3.17;1.90;;;;;;;;;;5132616;27;20047;-72
2021/05/08 08:44:44;;;;;;;3.35;2.10;;;;;;;;;;5134479;27;20047;-71
2021/05/08 08:49:52;;;;;;;3.20;1.90;;;;;;;;;;5133122;27;20043;-72
2021/05/08 08:52:18;;;;;;;5.57;1.80;;;;;;;;;;5132226;28;20062;-68
2021/05/08 08:54:43;;;;;;;3.10;1.98;;;;;;;;;;5132406;27;20558;-69
2021/05/08 08:57:11;;;;;;;2.67;1.90;;;;;;;;;;5123843;27;20055;-69
2021/05/08 08:59:38;;;;;;;4.07;2.03;;;;;;;;;;5129952;28;20168;-68
2021/05/08 09:02:04;;;;;;;3.17;1.88;;;;;;;;;;5130093;28;20096;-69
2021/05/08 09:04:30;;;;;;;3.03;1.90;;;;;;;;;;5131712;28;20051;-70
2021/05/08 09:06:57;;;;;;;3.33;1.80;;;;;;;;;;5132287;28;20047;-69
2021/05/08 09:09:23;;;;;;;3.05;1.83;;;;;;;;;;5132579;28;20115;-70
2021/05/08 09:11:51;;;;;;;3.20;1.77;;;;;;;;;;5131490;28;20380;-69
2021/05/08 09:14:20;;;;;;;3.83;2.17;;;;;;;;;;5120530;28;20044;-69
2021/05/08 09:17:03;;;;;;;4.15;1.98;;;;;;;;;;5133229;28;20043;-69
2021/05/08 09:19:29;;;;;;;2.63;1.80;;;;;;;;;;5133073;28;20055;-69
2021/05/08 09:21:56;;;;;;;2.33;1.60;;;;;;;;;;5132690;28;20072;-69
2021/05/08 09:24:22;;;;;;;3.03;1.80;;;;;;;;;;5133602;28;20058;-69
2021/05/08 09:26:50;;;;;;;1.83;1.40;;;;;;;;;;5132694;28;20055;-69
2021/05/08 09:29:16;;;;;;;3.25;1.40;;;;;;;;;;5133255;28;20066;-69
2021/05/08 09:31:51;;;;;;;5.10;1.92;;;;;;;;;;5132518;28;20388;-69
2021/05/08 09:34:18;;;;;;;3.60;1.90;;;;;;;;;;5136844;27;20100;-70
2021/05/08 09:36:50;;;;;;;2.83;1.70;;;;;;;;;;5137096;27;20043;-69
2021/05/08 09:39:31;;;;;;;2.72;1.58;;;;;;;;;;5137002;27;20047;-69
2021/05/08 09:41:57;;;;;;;3.13;1.35;;;;;;;;;;5136458;27;20047;-70
2021/05/08 09:44:24;;;;;;;3.70;1.70;;;;;;;;;;5137284;27;20051;-69
2021/05/08 09:46:51;;;;;;;2.58;1.95;;;;;;;;;;5136840;27;20039;-69
2021/05/08 09:49:20;;;;;;;3.30;1.60;;;;;;;;;;5136890;27;20373;-69
2021/05/08 09:51:57;;;;;;;3.08;1.58;;;;;;;;;;5136311;27;20039;-69
2021/05/08 09:54:23;;;;;;;3.03;1.60;;;;;;;;;;5136618;27;20423;-69
2021/05/08 09:56:51;;;;;;;2.80;1.55;;;;;;;;;;5136714;27;20047;-68
2021/05/08 09:59:25;;;;;;;4.25;1.60;;;;;;;;;;5137123;27;20110;-68
2021/05/08 10:02:10;;;;;;;1.92;1.20;;;;;;;;;;5136092;27;20047;-68
2021/05/08 10:04:39;;;;;;;2.90;1.23;;;;;;;;;;5136388;27;20089;-68
2021/05/08 10:07:06;;;;;;;4.68;1.50;;;;;;;;;;5136722;27;20051;-68
2021/05/08 10:09:32;;;;;;;2.92;1.60;;;;;;;;;;5136754;27;20451;-68
2021/05/08 10:12:00;;;;;;;2.88;1.40;;;;;;;;;;5135928;27;20515;-68
2021/05/08 10:14:26;;;;;;;1.75;1.10;;;;;;;;;;5131641;27;20043;-68
2021/05/08 10:16:52;;;;;;;2.03;1.20;;;;;;;;;;5127718;27;20380;-69
2021/05/08 10:19:18;;;;;;;1.80;1.27;;;;;;;;;;5136120;27;20047;-68
2021/05/08 10:21:45;;;;;;;1.92;1.27;;;;;;;;;;5135631;27;20039;-69
2021/05/08 10:24:11;;;;;;;2.97;1.30;;;;;;;;;;5136650;27;20050;-68
2021/05/08 10:26:37;;;;;;;2.97;1.23;;;;;;;;;;5135788;27;20043;-69
2021/05/08 10:29:04;;;;;;;2.97;1.42;;;;;;;;;;5135951;27;20372;-68
2021/05/08 10:31:30;;;;;;;5.57;1.40;;;;;;;;;;5135496;27;20035;-69
2021/05/08 10:33:56;;;;;;;2.13;1.20;;;;;;;;;;5136310;27;20050;-68
2021/05/08 10:36:43;;;;;;;2.83;1.60;;;;;;;;;;5135938;27;20051;-69
2021/05/08 10:39:10;;;;;;;2.00;1.17;;;;;;;;;;5136034;27;20050;-70
2021/05/08 10:41:51;;;;;;;5.90;1.52;;;;;;;;;;5134979;27;20567;-68
2021/05/08 10:44:45;;;;;;;1.75;1.17;;;;;;;;;;5112423;28;20054;-68
2021/05/08 10:47:14;;;;;;;2.28;1.08;;;;;;;;;;5115284;28;20506;-69
2021/05/08 10:49:40;;;;;;;2.88;1.20;;;;;;;;;;5115370;28;20134;-68
2021/05/08 10:52:06;;;;;;;1.73;0.93;;;;;;;;;;5133194;27;20053;-68
2021/05/08 10:54:52;;;;;;;5.60;1.50;;;;;;;;;;5135744;27;20058;-68
2021/05/08 10:57:19;;;;;;;3.95;1.30;;;;;;;;;;5135676;27;20603;-68
2021/05/08 11:00:34;;;;;;;1.42;1.00;;;;;;;;;;5135417;27;20096;-69
2021/05/08 11:03:01;;;;;;;2.40;0.90;;;;;;;;;;5134915;27;20099;-69
2021/05/08 11:05:28;;;;;;;1.80;1.05;;;;;;;;;;5135620;27;20054;-69
2021/05/08 11:07:55;;;;;;;2.10;1.10;;;;;;;;;;5114876;28;20403;-69
2021/05/08 11:10:38;;;;;;;2.03;1.25;;;;;;;;;;5132095;27;20055;-69
2021/05/08 11:13:08;;;;;;;1.42;1.02;;;;;;;;;;5134036;27;20043;-68
2021/05/08 11:16:09;;;;;;;3.05;1.30;;;;;;;;;;5125735;27;20051;-69
2021/05/08 11:18:38;;;;;;;1.65;1.17;;;;;;;;;;5116619;27;20080;-67
2021/05/08 11:21:05;;;;;;;1.85;1.00;;;;;;;;;;5133803;27;20661;-70
2021/05/08 11:23:41;;;;;;;2.90;1.15;;;;;;;;;;5113584;28;20049;-69
2021/05/08 11:26:40;;;;;;;2.88;1.10;;;;;;;;;;5114145;28;20048;-71
2021/05/08 11:29:09;;;;;;;2.53;1.08;;;;;;;;;;5120534;27;20120;-72
2021/05/08 11:31:36;;;;;;;1.63;1.10;;;;;;;;;;5134020;27;20617;-69
2021/05/08 11:34:14;;;;;;;4.68;1.30;;;;;;;;;;5134815;27;20053;-69
2021/05/08 11:36:51;;;;;;;2.33;0.98;;;;;;;;;;5134630;27;20054;-69
2021/05/08 11:39:18;;;;;;;1.33;0.98;;;;;;;;;;5134534;27;20231;-69
2021/05/08 11:41:45;;;;;;;1.02;0.70;;;;;;;;;;5133699;27;20486;-69
2021/05/08 11:44:22;;;;;;;2.38;1.30;;;;;;;;;;5134353;27;20049;-69
2021/05/08 11:46:52;;;;;;;1.73;1.10;;;;;;;;;;5134780;27;20074;-69
2021/05/08 11:49:31;;;;;;;2.35;1.10;;;;;;;;;;5133891;27;20079;-70
2021/05/08 11:51:58;;;;;;;2.40;1.33;;;;;;;;;;5133814;27;20047;-70
2021/05/08 11:54:26;;;;;;;1.75;0.90;;;;;;;;;;5133112;27;20057;-70
2021/05/08 11:56:52;;;;;;;2.85;1.10;;;;;;;;;;5142342;27;20166;-70
2021/05/08 11:59:31;;;;;;;2.80;1.15;;;;;;;;;;5140057;27;20486;-69
2021/05/08 12:02:14;;;;;;;3.10;1.38;;;;;;;;;;5131187;27;20047;-69
2021/05/08 12:04:49;;;;;;;1.50;1.00;;;;;;;;;;5128736;27;20474;-70
2021/05/08 12:07:18;;;;;;;6.90;1.35;;;;;;;;;;5134650;27;20784;-69
2021/05/08 12:09:44;;;;;;;1.83;1.13;;;;;;;;;;5132496;27;20058;-69
2021/05/08 12:12:11;;;;;;;2.47;1.02;;;;;;;;;;5132937;27;20043;-69
2021/05/08 12:14:39;;;;;;;3.08;0.82;;;;;;;;;;5132953;27;20039;-69
2021/05/08 12:17:05;;;;;;;2.22;0.85;;;;;;;;;;5125463;27;20047;-69
2021/05/08 12:19:31;;;;;;;3.75;1.30;;;;;;;;;;5131041;27;20368;-70
2021/05/08 12:21:58;;;;;;;1.42;0.90;;;;;;;;;;5132180;27;20047;-67
2021/05/08 12:24:24;;;;;;;3.30;1.00;;;;;;;;;;5132397;27;20096;-68
2021/05/08 12:26:50;;;;;;;1.10;0.80;;;;;;;;;;5131808;27;20047;-68
2021/05/08 12:29:16;;;;;;;3.85;0.90;;;;;;;;;;5132343;27;20043;-68
2021/05/08 12:31:45;;;;;;;1.80;1.00;;;;;;;;;;5131358;27;20062;-68
2021/05/08 12:34:13;;;;;;;1.77;1.33;;;;;;;;;;5132758;27;20053;-68
2021/05/08 12:36:41;;;;;;;1.60;1.13;;;;;;;;;;5127550;27;20047;-68
2021/05/08 12:39:21;;;;;;;2.90;0.95;;;;;;;;;;5125629;27;20491;-69
2021/05/08 12:41:53;;;;;;;1.85;0.90;;;;;;;;;;5124886;27;20050;-69
2021/05/08 12:44:27;;;;;;;1.60;0.90;;;;;;;;;;5129826;27;20051;-68
2021/05/08 12:46:59;;;;;;;1.63;1.00;;;;;;;;;;5131699;27;20578;-68
2021/05/08 12:49:26;;;;;;;1.98;0.95;;;;;;;;;;5132445;28;20043;-68
2021/05/08 12:51:52;;;;;;;2.90;1.10;;;;;;;;;;5133141;28;20051;-69
2021/05/08 12:54:22;;;;;;;1.90;0.88;;;;;;;;;;5129406;27;20126;-69
2021/05/08 12:56:50;;;;;;;3.72;1.00;;;;;;;;;;5133456;27;20074;-68
2021/05/08 12:59:26;;;;;;;2.72;0.82;;;;;;;;;;5145774;27;20064;-68
2021/05/08 13:01:54;;;;;;;1.67;0.70;;;;;;;;;;5137611;27;20387;-69
2021/05/08 13:04:20;;;;;;;2.38;1.00;;;;;;;;;;5141414;27;20047;-69
2021/05/08 13:06:47;;;;;;;1.83;0.80;;;;;;;;;;5134045;27;20043;-68
2021/05/08 13:09:21;;;;;;;2.03;0.95;;;;;;;;;;5156227;27;20486;-68
2021/05/08 13:11:47;;;;;;;2.92;1.05;;;;;;;;;;5147059;27;20589;-68
2021/05/08 13:14:20;;;;;;;2.45;1.00;;;;;;;;;;5137569;27;20054;-70
2021/05/08 13:16:47;;;;;;;1.67;0.70;;;;;;;;;;5129892;27;20051;-69
2021/05/08 13:19:13;;;;;;;2.80;0.75;;;;;;;;;;5121137;27;20522;-70
2021/05/08 13:21:39;;;;;;;0.98;0.63;;;;;;;;;;5134923;27;20058;-69
2021/05/08 13:24:06;;;;;;;2.40;0.85;;;;;;;;;;5137433;27;20054;-69
2021/05/08 13:26:33;;;;;;;4.00;0.77;;;;;;;;;;5136350;27;20051;-68
2021/05/08 13:28:59;;;;;;;4.68;0.88;;;;;;;;;;5135589;27;20103;-69
2021/05/08 13:31:25;;;;;;;2.05;0.70;;;;;;;;;;5136511;27;20039;-68
2021/05/08 13:33:51;;;;;;;3.72;1.00;;;;;;;;;;5136701;27;20407;-68
2021/05/08 13:36:19;;;;;;;1.23;0.70;;;;;;;;;;5132581;27;20078;-70
2021/05/08 13:38:46;;;;;;;1.55;0.82;;;;;;;;;;5136539;27;20043;-67
2021/05/08 13:41:12;;;;;;;3.10;0.80;;;;;;;;;;5134070;27;20088;-68
2021/05/08 13:43:39;;;;;;;1.85;0.60;;;;;;;;;;5134707;27;20043;-68
2021/05/08 13:46:05;;;;;;;2.30;0.60;;;;;;;;;;5130340;27;20129;-68
2021/05/08 13:48:31;;;;;;;1.80;0.70;;;;;;;;;;5133756;27;20418;-68
2021/05/08 13:50:57;;;;;;;2.95;0.47;;;;;;;;;;5135311;27;20382;-69
2021/05/08 13:53:23;;;;;;;0.85;0.50;;;;;;;;;;5119739;27;20130;-69
2021/05/08 13:55:49;;;;;;;0.63;0.43;;;;;;;;;;5125007;27;20075;-69
2021/05/08 13:58:15;;;;;;;0.98;0.60;;;;;;;;;;5129518;27;20882;-69
2021/05/08 14:00:42;;;;;;;5.40;0.98;;;;;;;;;;5134458;27;20039;-69
2021/05/08 14:03:08;;;;;;;1.98;0.60;;;;;;;;;;5131513;27;20601;-69
2021/05/08 14:05:34;;;;;;;67.70;6.82;;;;;;;;;;5131861;27;20047;-70
2021/05/08 14:08:01;;;;;;;7.50;1.33;;;;;;;;;;5136045;27;20055;-69
2021/05/08 14:10:27;;;;;;;10.18;1.70;;;;;;;;;;5136221;27;20051;-67
2021/05/08 14:12:53;;;;;;;4.30;0.93;;;;;;;;;;5130630;27;20039;-68
2021/05/08 14:15:19;;;;;;;37.45;3.08;;;;;;;;;;5132091;27;20184;-72
2021/05/08 14:17:45;;;;;;;8.05;1.98;;;;;;;;;;5132671;27;20115;-69
2021/05/08 14:20:11;;;;;;;13.98;4.70;;;;;;;;;;5129905;27;20051;-70
2021/05/08 14:22:38;;;;;;;12.10;5.13;;;;;;;;;;5133590;27;20042;-69
2021/05/08 14:25:06;;;;;;;7.93;5.10;;;;;;;;;;5135581;27;20043;-70
2021/05/08 14:27:32;;;;;;;5.25;2.03;;;;;;;;;;5135716;27;20396;-69
2021/05/08 14:29:59;;;;;;;3.08;0.80;;;;;;;;;;5135959;27;20749;-71
2021/05/08 14:32:25;;;;;;;1.33;0.85;;;;;;;;;;5135367;27;20055;-68
2021/05/08 14:34:52;;;;;;;1.55;0.80;;;;;;;;;;5135670;27;20047;-68
2021/05/08 14:37:18;;;;;;;0.80;0.50;;;;;;;;;;5135402;27;20060;-69
2021/05/08 14:39:44;;;;;;;3.08;0.63;;;;;;;;;;5135009;27;20047;-68
2021/05/08 14:42:10;;;;;;;1.75;0.80;;;;;;;;;;5134576;27;20089;-67
2021/05/08 14:44:36;;;;;;;1.50;0.50;;;;;;;;;;5135577;27;20047;-67
2021/05/08 14:47:02;;;;;;;0.60;0.30;;;;;;;;;;5135365;27;20104;-69
2021/05/08 14:49:30;;;;;;;0.77;0.50;;;;;;;;;;5134225;27;20468;-67
2021/05/08 14:51:57;;;;;;;1.70;0.57;;;;;;;;;;5132753;27;20039;-70
2021/05/08 14:54:23;;;;;;;1.80;0.57;;;;;;;;;;5135048;27;20050;-68
2021/05/08 14:56:49;;;;;;;2.17;1.15;;;;;;;;;;5135340;27;20043;-68